Time;durP1;ratioP1;P1;durP2;ratioP2;P2;SDS_P1;SDS_P2;PMS_P1;PMS_P2;Temp;Humidity;BMP_temperature;BMP_pressure;BME280_temperature;BME280_humidity;BME280_pressure;Samples;Min_cycle;Max_cycle;Signal;HPM_P1;HPM_P2
2021/01/04 00:00:19;;;;;;;7.10;6.50;;;6.20;99.90;;;;;;5053207;28;20682;-76
2021/01/04 00:03:05;;;;;;;6.65;6.05;;;6.10;99.90;;;;;;5070809;28;20192;-76
2021/01/04 00:05:32;;;;;;;7.30;6.70;;;6.00;99.90;;;;;;5053455;28;20174;-77
2021/01/04 00:08:39;;;;;;;8.05;7.35;;;6.00;99.90;;;;;;5052173;28;20236;-78
2021/01/04 00:11:14;;;;;;;6.93;6.32;;;6.00;99.80;;;;;;5052207;28;20288;-76
2021/01/04 00:13:58;;;;;;;6.47;5.97;;;6.00;99.70;;;;;;5052898;28;20184;-76
2021/01/04 00:16:29;;;;;;;8.20;7.60;;;5.90;99.90;;;;;;5052477;28;20178;-76
2021/01/04 00:19:20;;;;;;;8.68;6.68;;;5.80;99.90;;;;;;5047783;28;20197;-77
2021/01/04 00:21:50;;;;;;;7.90;7.30;;;5.80;99.90;;;;;;5052596;28;20532;-76
2021/01/04 00:24:38;;;;;;;8.30;7.55;;;5.80;99.90;;;;;;5051003;28;20243;-76
2021/01/04 00:27:18;;;;;;;7.97;7.28;;;5.90;99.90;;;;;;5051987;28;20167;-76
2021/01/04 00:29:44;;;;;;;8.32;7.63;;;5.90;99.90;;;;;;5052587;28;20308;-76
2021/01/04 00:32:19;;;;;;;7.63;7.03;;;5.90;99.90;;;;;;5048529;28;20277;-76
2021/01/04 00:34:50;;;;;;;8.02;7.43;;;5.90;99.90;;;;;;5026450;28;20217;-77
2021/01/04 00:37:25;;;;;;;8.13;7.43;;;5.90;99.90;;;;;;5051078;28;20158;-76
2021/01/04 00:40:08;;;;;;;7.97;7.38;;;5.90;99.90;;;;;;5052049;28;20177;-76
2021/01/04 00:42:40;;;;;;;8.10;7.45;;;5.90;99.90;;;;;;5050570;28;20185;-76
2021/01/04 00:45:33;;;;;;;7.65;7.05;;;5.90;99.90;;;;;;5051344;28;20177;-76
2021/01/04 00:48:32;;;;;;;9.10;8.23;;;6.00;99.90;;;;;;5051754;28;20633;-77
2021/01/04 00:51:21;;;;;;;8.10;7.40;;;6.10;99.90;;;;;;5052016;28;20198;-78
2021/01/04 00:53:49;;;;;;;7.97;7.35;;;6.00;99.80;;;;;;5051472;28;20265;-77
2021/01/04 00:57:15;;;;;;;8.30;7.60;;;6.00;99.90;;;;;;5027327;28;20209;-77
2021/01/04 01:00:04;;;;;;;7.10;6.50;;;6.10;99.80;;;;;;5042863;28;20284;-76
2021/01/04 01:02:42;;;;;;;7.30;6.70;;;6.00;99.80;;;;;;5032956;28;20174;-76
2021/01/04 01:05:15;;;;;;;7.30;6.72;;;6.00;99.90;;;;;;5050001;28;20300;-76
2021/01/04 01:08:11;;;;;;;7.30;6.70;;;6.00;99.90;;;;;;5051907;28;20162;-76
2021/01/04 01:10:45;;;;;;;7.50;6.90;;;5.90;99.90;;;;;;5051269;28;20221;-76
2021/01/04 01:13:42;;;;;;;7.28;6.68;;;5.90;99.90;;;;;;5051459;28;20159;-76
2021/01/04 01:16:17;;;;;;;7.65;7.05;;;5.90;99.90;;;;;;5050959;28;20640;-77
2021/01/04 01:19:07;;;;;;;7.90;7.10;;;5.90;99.90;;;;;;5051249;28;20662;-77
2021/01/04 01:21:34;;;;;;;7.43;6.82;;;6.00;99.90;;;;;;5049955;28;20185;-77
2021/01/04 01:24:02;;;;;;;7.50;6.90;;;6.00;99.90;;;;;;5056850;28;20521;-77
2021/01/04 01:26:40;;;;;;;7.63;6.82;;;6.10;99.90;;;;;;5057733;28;20181;-76
2021/01/04 01:29:21;;;;;;;7.70;7.00;;;6.10;99.90;;;;;;5060336;28;20541;-76
2021/01/04 01:32:17;;;;;;;7.43;6.82;;;6.00;99.90;;;;;;5057258;28;20552;-76
2021/01/04 01:34:51;;;;;;;7.65;6.95;;;6.10;99.90;;;;;;5061278;28;20204;-76
2021/01/04 01:37:38;;;;;;;8.20;7.40;;;6.00;99.90;;;;;;5060361;28;20165;-76
2021/01/04 01:40:28;;;;;;;9.10;8.30;;;6.10;99.90;;;;;;5060906;28;20169;-76
2021/01/04 01:43:18;;;;;;;7.80;7.18;;;6.10;99.90;;;;;;5049444;28;20335;-76
2021/01/04 01:46:10;;;;;;;8.88;8.07;;;6.10;99.70;;;;;;5061337;28;20497;-76
2021/01/04 01:48:48;;;;;;;8.98;8.07;;;6.10;99.90;;;;;;5059536;28;20159;-76
2021/01/04 01:52:01;;;;;;;8.90;8.13;;;6.10;99.90;;;;;;5057470;28;20720;-76
2021/01/04 01:54:47;;;;;;;9.05;8.25;;;6.10;99.90;;;;;;5060761;28;20166;-76
2021/01/04 01:57:22;;;;;;;8.23;7.63;;;6.00;99.90;;;;;;5057220;28;20166;-76
2021/01/04 02:00:00;;;;;;;9.02;8.23;;;6.10;99.90;;;;;;5057358;28;20188;-76
2021/01/04 02:02:36;;;;;;;9.02;8.23;;;6.10;99.90;;;;;;5071439;28;20157;-76
2021/01/04 02:05:27;;;;;;;9.57;8.77;;;6.00;99.90;;;;;;5054185;28;20177;-77
2021/01/04 02:08:11;;;;;;;8.32;7.57;;;6.00;99.90;;;;;;5052990;28;20174;-76
2021/01/04 02:10:43;;;;;;;8.70;7.93;;;5.90;99.70;;;;;;5071921;28;20231;-73
2021/01/04 02:13:28;;;;;;;9.15;8.35;;;5.90;99.90;;;;;;5069762;28;20170;-76
2021/01/04 02:15:53;;;;;;;8.63;7.82;;;5.90;99.90;;;;;;5071504;28;20193;-76
2021/01/04 02:18:56;;;;;;;7.90;7.20;;;6.00;99.90;;;;;;5070708;28;21132;-76
2021/01/04 02:21:47;;;;;;;8.27;7.57;;;5.90;99.90;;;;;;5064465;28;20200;-76
2021/01/04 02:24:20;;;;;;;8.30;7.60;;;5.90;99.90;;;;;;5064966;28;20186;-76
2021/01/04 02:26:57;;;;;;;7.95;7.25;;;5.90;99.90;;;;;;5064022;28;20178;-76
2021/01/04 02:29:23;;;;;;;7.95;7.15;;;5.80;99.90;;;;;;5060656;28;20366;-76
2021/01/04 02:31:51;;;;;;;9.43;8.53;;;5.90;99.90;;;;;;5063213;28;20657;-77
2021/01/04 02:34:23;;;;;;;7.88;7.22;;;5.90;99.90;;;;;;5064041;28;20457;-75
2021/01/04 02:36:53;;;;;;;8.60;7.85;;;5.90;99.90;;;;;;5061517;28;20572;-76
2021/01/04 02:39:27;;;;;;;7.78;7.18;;;5.90;99.90;;;;;;5058680;28;20162;-76
2021/01/04 02:42:01;;;;;;;7.70;7.10;;;5.90;99.90;;;;;;5062871;28;20182;-76
2021/01/04 02:44:28;;;;;;;7.70;7.10;;;5.90;99.90;;;;;;5054390;28;20261;-76
2021/01/04 02:47:21;;;;;;;7.30;6.70;;;5.80;99.90;;;;;;5053508;28;20178;-75
2021/01/04 02:49:50;;;;;;;8.10;7.40;;;5.80;99.90;;;;;;5062197;28;20227;-76
2021/01/04 02:52:22;;;;;;;7.38;6.75;;;5.80;99.90;;;;;;5073292;28;20216;-77
2021/01/04 02:55:01;;;;;;;8.40;7.70;;;5.80;99.90;;;;;;5053173;28;20228;-76
2021/01/04 02:57:38;;;;;;;7.70;6.93;;;5.70;99.90;;;;;;5037897;28;20181;-76
2021/01/04 03:00:12;;;;;;;7.30;6.65;;;5.70;99.90;;;;;;5054673;28;20617;-77
2021/01/04 03:02:49;;;;;;;8.02;7.32;;;5.80;99.90;;;;;;5054705;28;20173;-76
2021/01/04 03:05:20;;;;;;;8.95;7.10;;;5.80;99.90;;;;;;5052895;28;20627;-76
2021/01/04 03:08:00;;;;;;;8.15;7.45;;;5.80;99.90;;;;;;5053486;28;20173;-75
2021/01/04 03:10:32;;;;;;;8.13;7.43;;;5.70;99.90;;;;;;5053529;28;20197;-76
2021/01/04 03:13:08;;;;;;;9.05;8.25;;;5.80;99.90;;;;;;5054496;28;20151;-76
2021/01/04 03:16:04;;;;;;;8.82;8.10;;;5.80;99.90;;;;;;5054551;28;20161;-76
2021/01/04 03:18:34;;;;;;;8.48;7.78;;;5.70;99.90;;;;;;5052921;28;20239;-76
2021/01/04 03:21:02;;;;;;;7.90;7.10;;;5.60;99.90;;;;;;5054628;28;20181;-76
2021/01/04 03:23:30;;;;;;;8.20;7.47;;;5.60;99.90;;;;;;5053320;28;20174;-76
2021/01/04 03:26:10;;;;;;;8.65;7.50;;;5.70;99.90;;;;;;5054090;28;20189;-76
2021/01/04 03:28:36;;;;;;;8.20;7.40;;;5.70;99.90;;;;;;5052906;28;20177;-75
2021/01/04 03:31:05;;;;;;;8.77;7.97;;;5.70;99.90;;;;;;5053648;28;20221;-75
2021/01/04 03:33:31;;;;;;;8.98;8.27;;;5.70;99.90;;;;;;5053793;28;20170;-76
2021/01/04 03:35:58;;;;;;;8.70;7.90;;;5.80;99.90;;;;;;5053948;28;20510;-76
2021/01/04 03:38:24;;;;;;;8.98;8.10;;;5.80;99.90;;;;;;5052949;28;20174;-76
2021/01/04 03:40:50;;;;;;;8.30;7.60;;;5.70;99.90;;;;;;5052786;28;20185;-76
2021/01/04 03:43:16;;;;;;;9.27;8.50;;;5.80;99.90;;;;;;5053106;28;20523;-76
2021/01/04 03:45:42;;;;;;;8.23;7.53;;;5.80;99.90;;;;;;5053656;28;20185;-76
2021/01/04 03:48:09;;;;;;;8.80;8.10;;;5.80;99.90;;;;;;5052999;28;20197;-77
2021/01/04 03:50:35;;;;;;;8.77;8.07;;;5.80;99.90;;;;;;5053715;28;20263;-76
2021/01/04 03:53:00;;;;;;;8.40;7.70;;;5.70;99.90;;;;;;5052276;28;20182;-76
2021/01/04 03:55:26;;;;;;;10.10;8.33;;;5.70;99.90;;;;;;5052464;28;20208;-76
2021/01/04 03:57:52;;;;;;;8.87;8.07;;;5.70;99.90;;;;;;5053908;28;20185;-76
2021/01/04 04:00:19;;;;;;;10.07;8.90;;;5.70;99.90;;;;;;5051539;28;20601;-76
2021/01/04 04:02:45;;;;;;;9.82;7.97;;;5.60;99.90;;;;;;5053271;28;20519;-76
2021/01/04 04:05:13;;;;;;;8.50;7.70;;;5.60;99.90;;;;;;5051437;28;20228;-76
2021/01/04 04:07:42;;;;;;;8.90;8.10;;;5.60;99.90;;;;;;5053084;28;20424;-76
2021/01/04 04:10:09;;;;;;;8.80;7.93;;;5.60;99.90;;;;;;5052551;28;20224;-78
2021/01/04 04:12:35;;;;;;;9.07;8.20;;;5.50;99.90;;;;;;5053123;28;20525;-76
2021/01/04 04:15:01;;;;;;;8.73;7.93;;;5.50;99.90;;;;;;5053377;28;20181;-76
2021/01/04 04:17:27;;;;;;;9.35;8.48;;;5.50;99.90;;;;;;5052457;28;20340;-76
2021/01/04 04:19:53;;;;;;;8.70;7.80;;;5.50;99.90;;;;;;5052204;28;20217;-76
2021/01/04 04:22:19;;;;;;;8.67;7.87;;;5.50;99.90;;;;;;5051811;28;20170;-76
2021/01/04 04:24:45;;;;;;;9.27;8.37;;;5.60;99.90;;;;;;5052089;28;20253;-76
2021/01/04 04:27:13;;;;;;;11.77;8.82;;;5.60;99.90;;;;;;5052057;28;20193;-77
2021/01/04 04:29:40;;;;;;;9.52;8.68;;;5.40;99.90;;;;;;5052843;28;20224;-76
2021/01/04 04:32:06;;;;;;;9.20;8.30;;;5.50;99.90;;;;;;5052948;28;20310;-76
2021/01/04 04:34:33;;;;;;;9.50;8.60;;;5.50;99.90;;;;;;5052306;28;20193;-76
2021/01/04 04:36:59;;;;;;;9.52;8.10;;;5.50;99.90;;;;;;5051298;28;20504;-76
2021/01/04 04:39:25;;;;;;;8.70;7.90;;;5.60;99.90;;;;;;5052068;28;20182;-76
2021/01/04 04:41:53;;;;;;;8.97;8.17;;;5.60;99.90;;;;;;5052174;28;20209;-75
2021/01/04 04:44:56;;;;;;;9.25;8.45;;;5.60;99.90;;;;;;5050675;28;20181;-76
2021/01/04 04:47:40;;;;;;;9.30;8.40;;;5.60;99.90;;;;;;5051961;28;20169;-76
2021/01/04 04:50:16;;;;;;;8.23;7.53;;;5.50;99.90;;;;;;5052496;28;20239;-76
2021/01/04 04:53:20;;;;;;;9.48;8.68;;;5.50;99.90;;;;;;5052585;28;20207;-76
2021/01/04 04:56:11;;;;;;;8.50;7.80;;;5.40;99.90;;;;;;5061058;28;20206;-76
2021/01/04 04:58:56;;;;;;;10.18;9.18;;;5.40;99.90;;;;;;5052791;28;20519;-76
2021/01/04 05:01:43;;;;;;;9.52;8.70;;;5.40;99.90;;;;;;5052007;28;20188;-75
2021/01/04 05:04:33;;;;;;;12.43;11.43;;;5.40;99.90;;;;;;5051091;28;20205;-76
2021/01/04 05:07:14;;;;;;;11.10;10.10;;;5.40;99.90;;;;;;5052570;28;20169;-76
2021/01/04 05:09:59;;;;;;;8.90;8.00;;;5.50;99.90;;;;;;5052402;28;20328;-76
2021/01/04 05:12:33;;;;;;;10.82;9.80;;;5.30;99.90;;;;;;5050410;28;20197;-76
2021/01/04 05:15:05;;;;;;;10.55;9.65;;;5.40;99.90;;;;;;5052303;28;20263;-76
2021/01/04 05:18:02;;;;;;;12.30;11.23;;;5.40;99.90;;;;;;5051487;28;20184;-76
2021/01/04 05:21:13;;;;;;;9.48;8.57;;;5.50;99.90;;;;;;5051176;28;20209;-76
2021/01/04 05:23:51;;;;;;;9.85;8.95;;;5.60;99.90;;;;;;5052209;28;20174;-76
2021/01/04 05:26:47;;;;;;;8.10;7.30;;;5.50;99.90;;;;;;5051270;28;20189;-77
2021/01/04 05:29:44;;;;;;;9.43;8.40;;;5.50;99.90;;;;;;5051437;28;20225;-77
2021/01/04 05:32:19;;;;;;;9.60;8.60;;;5.50;99.90;;;;;;5051300;28;20272;-76
2021/01/04 05:34:59;;;;;;;9.07;8.20;;;5.40;99.90;;;;;;5052186;28;20211;-76
2021/01/04 05:37:44;;;;;;;10.30;9.38;;;5.40;99.90;;;;;;5048006;28;20200;-76
2021/01/04 05:40:18;;;;;;;8.95;7.50;;;5.40;99.90;;;;;;5052828;28;20234;-76
2021/01/04 05:43:02;;;;;;;9.40;8.38;;;5.40;99.90;;;;;;5052271;28;20245;-76
2021/01/04 05:45:38;;;;;;;8.30;7.30;;;5.40;99.90;;;;;;5051094;28;20216;-76
2021/01/04 05:48:10;;;;;;;10.20;9.20;;;5.40;99.90;;;;;;5050881;28;20166;-76
2021/01/04 05:51:03;;;;;;;10.63;9.35;;;5.40;99.90;;;;;;5050924;28;20578;-76
2021/01/04 05:53:28;;;;;;;9.88;8.35;;;5.40;99.90;;;;;;5052868;28;20181;-75
2021/01/04 05:55:59;;;;;;;11.10;10.20;;;5.50;99.90;;;;;;5056338;28;20524;-76
2021/01/04 05:58:32;;;;;;;8.70;7.80;;;5.40;99.90;;;;;;5054925;28;20597;-76
2021/01/04 06:01:12;;;;;;;8.73;7.93;;;5.40;99.90;;;;;;5055702;28;20180;-76
2021/01/04 06:03:38;;;;;;;9.50;8.60;;;5.50;99.90;;;;;;5055051;28;20170;-76
2021/01/04 06:06:20;;;;;;;9.30;8.30;;;5.50;99.90;;;;;;5055586;28;20261;-76
2021/01/04 06:08:46;;;;;;;10.13;9.13;;;5.50;99.90;;;;;;5051145;28;20181;-76
2021/01/04 06:11:14;;;;;;;8.27;7.37;;;5.60;99.90;;;;;;5054692;28;20193;-76
2021/01/04 06:13:43;;;;;;;8.75;7.85;;;5.60;99.90;;;;;;5055844;28;20193;-76
2021/01/04 06:16:17;;;;;;;10.13;9.23;;;5.40;99.90;;;;;;5055989;28;20213;-76
2021/01/04 06:18:46;;;;;;;8.80;8.05;;;5.40;99.90;;;;;;5055908;28;20181;-76
2021/01/04 06:21:31;;;;;;;8.93;8.02;;;5.40;99.90;;;;;;5055932;28;20178;-75
2021/01/04 06:24:01;;;;;;;8.60;7.80;;;5.30;99.90;;;;;;5055749;28;20170;-76
2021/01/04 06:26:27;;;;;;;9.27;8.27;;;5.30;99.90;;;;;;5055268;28;20178;-76
2021/01/04 06:29:00;;;;;;;9.23;8.33;;;5.30;99.90;;;;;;5054274;28;20189;-76
2021/01/04 06:31:30;;;;;;;10.18;8.85;;;5.40;99.90;;;;;;5049831;28;20983;-76
2021/01/04 06:34:02;;;;;;;10.30;9.07;;;5.50;99.90;;;;;;5055745;28;20606;-76
2021/01/04 06:36:33;;;;;;;9.35;8.65;;;5.50;99.90;;;;;;5053776;28;20249;-76
2021/01/04 06:39:15;;;;;;;10.93;9.30;;;5.50;99.90;;;;;;5055273;28;20245;-76
2021/01/04 06:41:41;;;;;;;11.10;10.00;;;5.40;99.90;;;;;;5054950;28;20193;-76
2021/01/04 06:44:13;;;;;;;8.70;7.80;;;5.40;99.90;;;;;;5055137;28;20261;-76
2021/01/04 06:46:57;;;;;;;12.30;11.20;;;5.40;99.90;;;;;;5054417;28;20174;-76
2021/01/04 06:49:43;;;;;;;11.15;9.77;;;5.40;99.90;;;;;;5053871;28;20700;-76
2021/01/04 06:52:43;;;;;;;10.77;9.32;;;5.40;99.90;;;;;;5065389;28;20609;-76
2021/01/04 06:55:20;;;;;;;9.18;8.27;;;5.50;99.90;;;;;;5047544;28;20695;-76
2021/01/04 06:58:15;;;;;;;9.52;8.63;;;5.50;99.90;;;;;;5055229;28;20327;-75
2021/01/04 07:00:59;;;;;;;9.82;8.93;;;5.50;99.90;;;;;;5058887;28;20180;-76
2021/01/04 07:03:37;;;;;;;9.18;8.32;;;5.50;99.90;;;;;;5063754;28;20241;-76
2021/01/04 07:06:28;;;;;;;9.43;8.50;;;5.60;99.90;;;;;;5052435;28;20634;-73
2021/01/04 07:08:56;;;;;;;11.02;9.93;;;5.60;99.90;;;;;;5053590;28;20181;-72
2021/01/04 07:11:44;;;;;;;10.70;9.60;;;5.60;99.90;;;;;;5053347;28;20206;-75
2021/01/04 07:14:31;;;;;;;9.80;8.63;;;6.50;99.90;;;;;;5053929;28;20240;-75
2021/01/04 07:17:04;;;;;;;10.53;9.43;;;7.60;99.90;;;;;;5047809;28;20487;-75
2021/01/04 07:19:54;;;;;;;10.13;9.07;;;8.70;99.90;;;;;;5053228;28;20485;-75
2021/01/04 07:22:49;;;;;;;9.60;8.80;;;9.70;99.90;;;;;;5075604;28;20416;-76
2021/01/04 07:25:52;;;;;;;11.97;11.07;;;10.10;99.90;;;;;;5036918;28;20440;-75
2021/01/04 07:28:21;;;;;;;10.90;10.00;;;10.20;99.90;;;;;;5053920;28;20410;-75
2021/01/04 07:30:57;;;;;;;8.53;7.83;;;10.90;99.90;;;;;;5053665;28;20453;-75
2021/01/04 07:33:37;;;;;;;9.90;9.10;;;11.40;99.90;;;;;;5053679;28;20407;-75
2021/01/04 07:36:15;;;;;;;11.20;10.20;;;12.00;99.90;;;;;;5054112;28;20417;-75
2021/01/04 07:38:55;;;;;;;8.17;7.50;;;12.50;99.90;;;;;;5053254;28;20931;-75
2021/01/04 07:41:29;;;;;;;8.80;8.00;;;12.80;97.60;;;;;;5053518;28;20430;-75
2021/01/04 07:44:33;;;;;;;10.30;9.50;;;13.00;97.80;;;;;;5062488;28;20423;-75
2021/01/04 07:47:23;;;;;;;10.60;9.80;;;13.30;97.70;;;;;;5053682;28;20474;-75
2021/01/04 07:50:07;;;;;;;8.53;7.83;;;13.40;93.00;;;;;;5052884;28;20420;-75
2021/01/04 07:52:53;;;;;;;9.57;8.77;;;13.20;91.50;;;;;;5053596;28;20474;-75
2021/01/04 07:55:46;;;;;;;9.40;8.63;;;13.40;95.40;;;;;;5052953;28;20915;-75
2021/01/04 07:58:21;;;;;;;12.07;11.17;;;13.30;93.50;;;;;;5053626;28;20758;-75
2021/01/04 08:00:56;;;;;;;11.07;10.27;;;13.30;95.20;;;;;;5058887;28;20430;-76
2021/01/04 08:03:49;;;;;;;9.13;8.43;;;13.40;93.60;;;;;;5078540;28;20428;-75
2021/01/04 08:06:48;;;;;;;9.97;9.27;;;13.40;94.00;;;;;;5053676;28;20413;-75
2021/01/04 08:09:51;;;;;;;8.27;7.67;;;13.10;92.90;;;;;;5050213;28;20432;-75
2021/01/04 08:12:32;;;;;;;10.40;9.70;;;13.10;95.40;;;;;;5053397;28;20424;-75
2021/01/04 08:15:16;;;;;;;8.10;7.40;;;13.30;94.00;;;;;;5053548;28;20776;-75
2021/01/04 08:17:51;;;;;;;8.03;7.37;;;13.20;90.70;;;;;;5051854;28;20839;-75
2021/01/04 08:20:17;;;;;;;8.33;7.73;;;13.00;94.70;;;;;;5051663;28;20411;-75
2021/01/04 08:23:05;;;;;;;8.13;7.50;;;13.10;95.20;;;;;;5051006;28;20413;-76
2021/01/04 08:26:08;;;;;;;9.57;8.87;;;13.20;93.30;;;;;;5053457;28;20439;-75
2021/01/04 08:29:01;;;;;;;8.87;7.90;;;13.20;93.70;;;;;;5028109;28;20557;-75
2021/01/04 08:31:34;;;;;;;7.27;6.60;;;13.50;94.10;;;;;;5059225;28;20525;-76
2021/01/04 08:34:04;;;;;;;9.07;8.30;;;13.60;94.40;;;;;;5064077;28;20421;-75
2021/01/04 08:36:33;;;;;;;6.77;6.27;;;13.80;93.90;;;;;;5052734;28;20419;-75
2021/01/04 08:39:21;;;;;;;8.73;8.13;;;13.80;92.40;;;;;;5053308;28;20408;-75
2021/01/04 08:42:10;;;;;;;10.70;10.00;;;13.90;91.90;;;;;;5053308;28;20501;-76
2021/01/04 08:44:36;;;;;;;9.57;8.87;;;13.80;92.00;;;;;;5049656;28;20470;-76
2021/01/04 08:47:15;;;;;;;6.90;6.30;;;13.90;92.50;;;;;;5052935;28;20424;-75
2021/01/04 08:49:43;;;;;;;6.50;6.00;;;14.00;92.90;;;;;;5052225;28;20913;-75
2021/01/04 08:52:22;;;;;;;8.57;7.60;;;14.20;92.90;;;;;;5053083;28;20412;-75
2021/01/04 08:54:59;;;;;;;7.00;6.50;;;14.30;91.90;;;;;;5052091;28;20430;-75
2021/01/04 08:57:39;;;;;;;7.37;6.77;;;14.50;92.20;;;;;;5051251;28;20456;-76
2021/01/04 09:00:19;;;;;;;7.07;6.27;;;14.70;90.70;;;;;;5053148;28;20511;-75
2021/01/04 09:02:45;;;;;;;7.20;6.50;;;14.70;91.80;;;;;;5052297;28;20529;-75
2021/01/04 09:05:27;;;;;;;7.83;7.23;;;14.70;90.80;;;;;;5052872;28;20419;-75
2021/01/04 09:07:56;;;;;;;11.27;6.50;;;14.80;89.50;;;;;;5053025;28;20403;-75
2021/01/04 09:10:43;;;;;;;9.33;7.17;;;14.90;90.50;;;;;;5051546;28;20462;-75
2021/01/04 09:13:23;;;;;;;7.53;6.93;;;14.90;86.10;;;;;;5052764;28;20808;-75
2021/01/04 09:15:51;;;;;;;7.07;6.57;;;14.90;89.20;;;;;;5056227;28;20415;-75
2021/01/04 09:19:09;;;;;;;6.90;6.40;;;14.90;88.50;;;;;;5052365;28;20442;-75
2021/01/04 09:21:40;;;;;;;6.03;5.43;;;15.00;90.60;;;;;;5010023;28;20491;-76
2021/01/04 09:24:18;;;;;;;10.10;9.37;;;15.30;90.60;;;;;;5009854;28;20437;-75
2021/01/04 09:26:45;;;;;;;7.40;6.80;;;15.40;88.80;;;;;;5030921;28;20431;-75
2021/01/04 09:29:11;;;;;;;7.30;6.80;;;15.40;85.30;;;;;;5051678;28;20528;-75
2021/01/04 09:31:47;;;;;;;7.73;6.37;;;15.40;89.60;;;;;;5049032;28;20501;-75
2021/01/04 09:34:16;;;;;;;7.77;7.27;;;15.40;88.40;;;;;;5046003;28;20188;-75
2021/01/04 09:36:41;;;;;;;7.80;7.20;;;15.30;87.90;;;;;;5050720;28;20426;-75
2021/01/04 09:39:10;;;;;;;8.60;8.00;;;14.90;70.50;;;;;;5051213;28;20426;-75
2021/01/04 09:41:36;;;;;;;8.67;8.07;;;14.00;68.60;;;;;;5049971;28;20186;-74
2021/01/04 09:44:11;;;;;;;6.93;6.30;;;13.20;69.60;;;;;;5051816;28;20517;-74
2021/01/04 09:46:40;;;;;;;9.20;8.50;;;12.20;73.00;;;;;;5051688;28;20416;-74
2021/01/04 09:49:12;;;;;;;8.20;7.60;;;11.30;77.00;;;;;;5052676;28;20431;-74
2021/01/04 09:51:39;;;;;;;8.50;8.00;;;10.50;79.40;;;;;;5050781;28;20807;-74
2021/01/04 09:54:08;;;;;;;9.90;9.10;;;10.00;81.40;;;;;;5049716;28;20441;-74
2021/01/04 09:56:37;;;;;;;7.40;6.60;;;9.40;85.80;;;;;;5050941;28;20412;-73
2021/01/04 09:59:20;;;;;;;9.67;8.87;;;8.90;87.50;;;;;;5050732;28;20845;-74
2021/01/04 10:02:07;;;;;;;7.97;7.27;;;8.50;90.20;;;;;;5051324;28;20839;-74
2021/01/04 10:04:38;;;;;;;7.83;7.33;;;8.20;91.00;;;;;;5051140;28;20422;-74
2021/01/04 10:07:07;;;;;;;8.00;7.50;;;8.00;91.90;;;;;;5052045;28;20426;-74
2021/01/04 10:09:41;;;;;;;9.23;8.53;;;7.70;92.60;;;;;;5051294;28;20523;-74
2021/01/04 10:12:09;;;;;;;10.10;9.40;;;7.40;93.70;;;;;;5051956;28;20860;-74
2021/01/04 10:14:35;;;;;;;9.33;7.80;;;7.10;94.50;;;;;;5051079;28;20729;-74
2021/01/04 10:17:02;;;;;;;7.47;6.87;;;6.90;95.60;;;;;;5052071;28;20440;-74
2021/01/04 10:19:37;;;;;;;7.27;6.57;;;6.80;95.50;;;;;;5051309;28;20451;-75
2021/01/04 10:22:16;;;;;;;9.00;8.20;;;6.70;96.10;;;;;;5052089;28;20372;-74
2021/01/04 10:24:56;;;;;;;8.32;7.60;;;6.50;96.50;;;;;;5050049;28;20433;-74
2021/01/04 10:27:24;;;;;;;7.85;7.25;;;6.40;97.30;;;;;;5051861;28;20206;-74
2021/01/04 10:29:52;;;;;;;8.43;7.70;;;6.30;97.40;;;;;;5041504;28;20186;-74
2021/01/04 10:32:26;;;;;;;9.70;8.75;;;6.20;97.70;;;;;;5051920;28;20210;-74
2021/01/04 10:34:54;;;;;;;9.30;8.35;;;6.20;97.80;;;;;;5051759;28;20209;-74
2021/01/04 10:37:53;;;;;;;8.32;7.63;;;6.20;98.40;;;;;;5051630;28;20182;-74
2021/01/04 10:40:22;;;;;;;8.77;7.97;;;6.10;98.30;;;;;;5031007;28;20190;-74
2021/01/04 10:42:59;;;;;;;11.85;7.63;;;6.00;99.30;;;;;;5059504;28;20177;-75
2021/01/04 10:45:39;;;;;;;7.95;7.25;;;6.00;99.30;;;;;;5061962;28;20181;-75
2021/01/04 10:48:07;;;;;;;8.80;8.00;;;6.10;99.20;;;;;;5060749;28;20190;-74
2021/01/04 10:50:39;;;;;;;9.18;8.27;;;6.10;99.40;;;;;;5062071;28;20245;-74
2021/01/04 10:53:09;;;;;;;9.25;8.35;;;6.10;99.90;;;;;;5063597;28;20186;-75
2021/01/04 10:55:48;;;;;;;9.65;8.38;;;6.10;99.90;;;;;;5058432;28;20574;-75
2021/01/04 10:58:20;;;;;;;10.07;9.07;;;6.20;99.90;;;;;;5062714;28;20200;-75
2021/01/04 11:00:59;;;;;;;8.75;7.78;;;6.10;99.90;;;;;;5059519;28;20174;-74
2021/01/04 11:03:25;;;;;;;9.80;8.80;;;6.20;99.90;;;;;;5054045;28;20261;-72
2021/01/04 11:05:51;;;;;;;7.88;7.18;;;6.10;99.90;;;;;;5051817;28;20193;-71
2021/01/04 11:08:24;;;;;;;8.57;7.67;;;6.10;99.90;;;;;;5054569;28;20169;-71
2021/01/04 11:11:05;;;;;;;7.78;7.07;;;6.20;99.90;;;;;;5053178;28;20208;-72
2021/01/04 11:13:33;;;;;;;8.73;7.93;;;6.20;99.90;;;;;;5050953;28;20177;-73
2021/01/04 11:16:14;;;;;;;9.50;8.60;;;6.30;99.90;;;;;;5054630;28;20174;-71
2021/01/04 11:18:45;;;;;;;9.75;8.95;;;6.20;99.60;;;;;;5053261;28;20303;-72
2021/01/04 11:21:12;;;;;;;8.05;7.25;;;6.20;99.90;;;;;;5054375;28;20205;-72
2021/01/04 11:23:38;;;;;;;8.20;7.22;;;6.30;99.90;;;;;;5050295;28;20508;-74
2021/01/04 11:26:08;;;;;;;9.07;7.30;;;6.30;99.80;;;;;;5049003;28;20208;-73
2021/01/04 11:28:34;;;;;;;8.95;8.15;;;6.30;99.90;;;;;;5051729;28;20180;-74
2021/01/04 11:30:59;;;;;;;8.60;7.80;;;6.30;99.90;;;;;;5053550;28;20257;-74
2021/01/04 11:33:26;;;;;;;9.00;8.30;;;6.30;99.80;;;;;;5053841;28;20216;-73
2021/01/04 11:35:55;;;;;;;9.52;8.73;;;6.20;99.90;;;;;;5051919;28;20197;-74
2021/01/04 11:38:21;;;;;;;9.20;8.30;;;6.30;99.70;;;;;;5053033;28;20182;-74
2021/01/04 11:40:47;;;;;;;10.70;9.70;;;6.20;99.50;;;;;;5053123;28;20579;-74
2021/01/04 11:43:14;;;;;;;9.07;8.18;;;6.20;99.90;;;;;;5053927;28;20180;-74
2021/01/04 11:45:40;;;;;;;8.30;7.50;;;6.10;99.60;;;;;;5053096;28;20174;-75
2021/01/04 11:48:07;;;;;;;10.20;9.30;;;6.00;99.90;;;;;;5053727;28;20675;-74
2021/01/04 11:50:32;;;;;;;7.95;7.28;;;6.00;99.90;;;;;;5052701;28;20248;-76
2021/01/04 11:52:58;;;;;;;9.57;8.67;;;6.00;99.90;;;;;;5053152;28;20182;-74
2021/01/04 11:55:25;;;;;;;9.70;8.90;;;6.00;99.90;;;;;;5047070;28;20185;-75
2021/01/04 11:57:51;;;;;;;10.15;8.90;;;6.00;99.90;;;;;;5051922;28;20207;-75
2021/01/04 12:00:18;;;;;;;10.75;9.65;;;6.00;99.90;;;;;;5051169;28;20182;-76
2021/01/04 12:02:44;;;;;;;9.35;8.55;;;6.00;99.90;;;;;;5040626;28;20224;-75
2021/01/04 12:05:12;;;;;;;11.40;10.30;;;6.10;99.90;;;;;;5051706;28;20227;-75
2021/01/04 12:07:38;;;;;;;10.52;9.52;;;6.10;99.90;;;;;;5055153;28;20170;-75
2021/01/04 12:10:05;;;;;;;8.57;7.63;;;6.20;99.70;;;;;;5052643;28;20303;-73
2021/01/04 12:12:30;;;;;;;10.07;9.18;;;6.20;99.90;;;;;;5052018;28;20659;-75
2021/01/04 12:14:56;;;;;;;9.40;8.57;;;6.20;99.70;;;;;;5051556;28;20288;-75
2021/01/04 12:17:22;;;;;;;9.57;8.67;;;6.20;99.60;;;;;;5065231;28;20169;-71
2021/01/04 12:19:48;;;;;;;9.90;8.47;;;6.20;99.50;;;;;;5051454;28;20177;-74
2021/01/04 12:22:15;;;;;;;10.77;9.67;;;6.20;99.40;;;;;;5055344;28;20423;-76
2021/01/04 12:24:45;;;;;;;10.18;8.93;;;6.20;99.60;;;;;;5051312;28;20424;-75
2021/01/04 12:27:12;;;;;;;10.80;9.70;;;6.10;99.60;;;;;;5053285;28;20535;-75
2021/01/04 12:29:45;;;;;;;11.20;9.35;;;6.20;99.90;;;;;;5051152;28;20178;-75
2021/01/04 12:32:12;;;;;;;10.20;9.05;;;6.30;99.90;;;;;;5048138;28;20229;-75
2021/01/04 12:34:40;;;;;;;9.60;8.57;;;6.20;99.90;;;;;;5051253;28;20189;-76
2021/01/04 12:37:06;;;;;;;9.88;8.85;;;6.20;99.80;;;;;;5052498;28;20174;-75
2021/01/04 12:39:32;;;;;;;10.15;9.05;;;6.30;99.90;;;;;;5052367;28;20506;-75
2021/01/04 12:41:58;;;;;;;11.43;10.23;;;6.40;99.90;;;;;;5052095;28;20185;-75
2021/01/04 12:44:24;;;;;;;11.17;9.23;;;6.40;99.90;;;;;;5052722;28;20228;-74
2021/01/04 12:46:51;;;;;;;10.43;9.18;;;6.40;99.50;;;;;;5051960;28;20189;-74
2021/01/04 12:49:19;;;;;;;10.43;9.43;;;6.40;99.10;;;;;;5034599;28;20205;-75
2021/01/04 12:51:50;;;;;;;10.70;9.70;;;6.30;99.20;;;;;;5050976;28;20367;-77
2021/01/04 12:54:18;;;;;;;10.30;9.30;;;6.20;99.10;;;;;;5032786;28;20265;-74
2021/01/04 12:56:45;;;;;;;10.70;9.60;;;6.30;99.30;;;;;;5051517;28;20178;-74
2021/01/04 12:59:12;;;;;;;10.68;9.57;;;6.10;99.20;;;;;;5052165;28;20186;-73
2021/01/04 13:01:39;;;;;;;11.43;9.88;;;6.20;99.90;;;;;;5049110;28;20202;-75
2021/01/04 13:04:06;;;;;;;10.93;9.93;;;6.30;99.90;;;;;;5052018;28;20182;-74
2021/01/04 13:06:33;;;;;;;10.77;9.77;;;6.30;99.90;;;;;;5052430;28;20174;-74
2021/01/04 13:09:00;;;;;;;10.98;9.65;;;6.40;99.80;;;;;;5051638;28;20178;-74
2021/01/04 13:11:27;;;;;;;10.77;9.77;;;6.30;99.30;;;;;;5052112;28;20198;-74
2021/01/04 13:13:52;;;;;;;11.40;10.20;;;6.30;99.10;;;;;;5042852;28;20192;-75
2021/01/04 13:16:18;;;;;;;11.83;10.60;;;6.30;99.30;;;;;;5051919;28;20250;-74
2021/01/04 13:18:44;;;;;;;11.80;10.70;;;6.40;99.10;;;;;;5051915;28;20170;-75
2021/01/04 13:21:22;;;;;;;11.30;10.30;;;6.30;98.80;;;;;;5052430;28;20189;-74
2021/01/04 13:23:48;;;;;;;11.30;10.20;;;6.30;98.90;;;;;;5051544;28;20220;-74
2021/01/04 13:26:15;;;;;;;10.63;9.70;;;6.30;98.70;;;;;;5052430;28;20421;-74
2021/01/04 13:28:44;;;;;;;11.07;9.93;;;6.40;98.80;;;;;;5051322;28;20177;-74
2021/01/04 13:31:10;;;;;;;11.45;10.25;;;6.40;99.00;;;;;;5052043;28;20312;-74
2021/01/04 13:33:36;;;;;;;12.90;11.60;;;6.40;99.00;;;;;;5051894;28;20251;-75
2021/01/04 13:36:07;;;;;;;12.43;11.13;;;6.40;98.80;;;;;;5040769;28;20257;-74